Time,TemperatureF,DewpointF,PressureIn,WindDirection,WindDirectionDegrees,WindSpeedMPH,WindSpeedGustMPH,Humidity,HourlyPrecipIn,Conditions,Clouds,dailyrainin,SoftwareType,DateUTC
2013-08-04 00:42:00,74.0,37.0,-100.00,SE,133,17.0,24.0,26,0.00,,,-99.99,,2013-08-04 00:42:00,
2013-08-04 01:42:00,74.0,37.0,-100.00,SSE,147,7.0,15.0,26,0.00,,,-99.99,,2013-08-04 01:42:00,
2013-08-04 02:02:00,74.0,37.0,-100.00,SSW,210,4.0,12.0,26,0.00,,,-99.99,,2013-08-04 02:02:00,
2013-08-04 02:12:00,73.0,37.0,-100.00,SSE,157,5.0,11.0,26,0.00,,,-99.99,,2013-08-04 02:12:00,
2013-08-04 02:22:00,73.0,36.0,-100.00,SE,130,7.0,17.0,26,0.00,,,-99.99,,2013-08-04 02:22:00,
2013-08-04 03:42:00,69.0,37.0,-100.00,SE,134,17.0,24.0,31,0.00,,,-99.99,,2013-08-04 03:42:00,
2013-08-04 03:52:00,68.0,37.0,-100.00,SE,130,16.0,24.0,32,0.00,,,-99.99,,2013-08-04 03:52:00,
2013-08-04 04:02:00,68.0,37.0,-100.00,SE,126,16.0,23.0,31,0.00,,,-99.99,,2013-08-04 04:02:00,
2013-08-04 04:12:00,69.0,36.0,-100.00,SE,128,16.0,24.0,30,0.00,,,-99.99,,2013-08-04 04:12:00,
2013-08-04 04:22:00,69.0,36.0,-100.00,SE,127,16.0,22.0,30,0.00,,,-99.99,,2013-08-04 04:22:00,
2013-08-04 04:32:00,68.0,36.0,-100.00,SE,126,16.0,24.0,31,0.00,,,-99.99,,2013-08-04 04:32:00,
2013-08-04 04:42:00,68.0,36.0,-100.00,SE,128,16.0,21.0,30,0.00,,,-99.99,,2013-08-04 04:42:00,
2013-08-04 04:52:00,68.0,35.0,-100.00,SE,127,17.0,22.0,30,0.00,,,-99.99,,2013-08-04 04:52:00,
2013-08-04 05:02:00,68.0,35.0,-100.00,SE,128,17.0,23.0,30,0.00,,,-99.99,,2013-08-04 05:02:00,
2013-08-04 05:12:00,63.0,41.0,-100.00,WSW,243,9.0,21.0,43,0.00,,,-99.99,,2013-08-04 05:12:00,
2013-08-04 05:22:00,59.0,44.0,-100.00,North,357,9.0,15.0,58,0.00,,,-99.99,,2013-08-04 05:22:00,
2013-08-04 05:32:00,65.0,38.0,-100.00,NNE,20,8.0,15.0,37,0.00,,,-99.99,,2013-08-04 05:32:00,
2013-08-04 05:42:00,66.0,37.0,-100.00,North,353,4.0,9.0,34,0.00,,,-99.99,,2013-08-04 05:42:00,
2013-08-04 05:52:00,61.0,43.0,-100.00,North,8,6.0,11.0,51,0.00,,,-99.99,,2013-08-04 05:52:00,
2013-08-04 06:01:00,61.0,41.0,-100.00,North,1,6.0,10.0,48,0.00,,,-99.99,,2013-08-04 06:01:00,
2013-08-04 06:12:00,64.0,37.0,-100.00,North,360,2.0,5.0,38,0.00,,,-99.99,,2013-08-04 06:12:00,
2013-08-04 06:22:00,64.0,39.0,-100.00,NNW,332,2.0,4.0,40,0.00,,,-99.99,,2013-08-04 06:22:00,
2013-08-04 06:32:00,61.0,40.0,-100.00,NNW,328,2.0,6.0,46,0.00,,,-99.99,,2013-08-04 06:32:00,
2013-08-04 06:43:00,63.0,37.0,-100.00,North,360,1.0,6.0,37,0.00,,,-99.99,,2013-08-04 06:43:00,
2013-08-04 06:52:00,61.0,38.0,-100.00,SE,131,2.0,4.0,44,0.00,,,-99.99,,2013-08-04 06:52:00,
2013-08-04 08:43:00,63.0,38.0,-100.00,SSE,160,11.0,16.0,40,0.00,,,-99.99,,2013-08-04 08:43:00,
2013-08-04 09:43:00,63.0,38.0,-100.00,SE,124,11.0,17.0,39,0.00,,,-99.99,,2013-08-04 09:43:00,
2013-08-04 10:32:00,63.0,38.0,-100.00,ESE,119,11.0,16.0,41,0.00,,,-99.99,,2013-08-04 10:32:00,
2013-08-04 10:42:00,63.0,39.0,-100.00,ESE,120,10.0,18.0,41,0.00,,,-99.99,,2013-08-04 10:42:00,
2013-08-04 10:53:00,61.0,39.0,-100.00,ESE,113,9.0,14.0,44,0.00,,,-99.99,,2013-08-04 10:53:00,
2013-08-04 11:02:00,61.0,38.0,-100.00,ESE,112,9.0,15.0,43,0.00,,,-99.99,,2013-08-04 11:02:00,
2013-08-04 11:42:00,60.0,39.0,-100.00,East,100,11.0,15.0,46,0.00,,,-99.99,,2013-08-04 11:42:00,
2013-08-04 12:43:00,59.0,37.0,-100.00,ESE,104,9.0,12.0,44,0.00,,,-99.99,,2013-08-04 12:43:00,
2013-08-04 12:53:00,60.0,37.0,-100.00,ESE,113,7.0,12.0,43,0.00,,,-99.99,,2013-08-04 12:53:00,
2013-08-04 13:42:00,65.0,36.0,-100.00,SE,133,10.0,13.0,34,0.00,,,-99.99,,2013-08-04 13:42:00,
2013-08-04 14:43:00,70.0,35.0,-100.00,SSE,150,12.0,17.0,27,0.00,,,-99.99,,2013-08-04 14:43:00,
2013-08-04 15:42:00,73.0,35.0,-100.00,SSE,161,12.0,16.0,26,0.00,,,-99.99,,2013-08-04 15:42:00,
2013-08-04 15:53:00,74.0,34.0,-100.00,SSE,155,12.0,17.0,23,0.00,,,-99.99,,2013-08-04 15:53:00,
2013-08-04 16:01:00,75.0,31.0,-100.00,SSE,161,11.0,18.0,20,0.00,,,-99.99,,2013-08-04 16:01:00,
2013-08-04 16:42:00,76.0,31.0,-100.00,South,175,9.0,17.0,19,0.00,,,-99.99,,2013-08-04 16:42:00,
2013-08-04 16:53:00,77.0,29.0,-100.00,South,179,9.0,17.0,17,0.00,,,-99.99,,2013-08-04 16:53:00,
2013-08-04 17:02:00,77.0,31.0,-100.00,SSW,203,9.0,17.0,19,0.00,,,-99.99,,2013-08-04 17:02:00,
2013-08-04 17:43:00,79.0,29.0,-100.00,SSE,165,15.0,24.0,16,0.00,,,-99.99,,2013-08-04 17:43:00,
2013-08-04 18:43:00,77.0,29.0,-100.00,South,178,9.0,15.0,17,0.00,,,-99.99,,2013-08-04 18:43:00,
2013-08-04 18:52:00,76.0,29.0,-100.00,SSW,208,11.0,16.0,18,0.00,,,-99.99,,2013-08-04 18:52:00,
2013-08-04 19:43:00,79.0,33.0,-100.00,SSW,198,15.0,24.0,19,0.00,,,-99.99,,2013-08-04 19:43:00,
2013-08-04 19:52:00,79.0,35.0,-100.00,South,174,13.0,22.0,21,0.00,,,-99.99,,2013-08-04 19:52:00,
2013-08-04 21:43:00,80.0,39.0,-100.00,SSW,193,5.0,11.0,23,0.00,,,-99.99,,2013-08-04 21:43:00,
2013-08-04 22:01:00,78.0,35.0,-100.00,SW,219,9.0,18.0,21,0.00,,,-99.99,,2013-08-04 22:01:00,
2013-08-04 22:43:00,72.0,40.0,-100.00,SW,234,13.0,21.0,31,0.00,,,-99.99,,2013-08-04 22:43:00,
2013-08-04 23:02:00,75.0,35.0,-100.00,South,174,6.0,11.0,24,0.00,,,-99.99,,2013-08-04 23:02:00,
2013-08-04 23:43:00,74.0,36.0,-100.00,SE,134,12.0,16.0,24,0.00,,,-99.99,,2013-08-04 23:43:00,